sensor_id;sensor_type;location;lat;lon;timestamp;temperature;humidity
76102;SHT30;64830;46.910;6.354;2023-02-15T00:01:29;2.33;64.54
76102;SHT30;64830;46.910;6.354;2023-02-15T00:03:55;2.30;64.88
76102;SHT30;64830;46.910;6.354;2023-02-15T00:06:21;2.29;64.63
76102;SHT30;64830;46.910;6.354;2023-02-15T00:08:47;2.20;64.95
76102;SHT30;64830;46.910;6.354;2023-02-15T00:11:15;2.16;64.83
76102;SHT30;64830;46.910;6.354;2023-02-15T00:13:40;2.16;65.35
76102;SHT30;64830;46.910;6.354;2023-02-15T00:16:10;2.09;65.61
76102;SHT30;64830;46.910;6.354;2023-02-15T00:18:37;2.05;64.88
76102;SHT30;64830;46.910;6.354;2023-02-15T00:21:09;2.09;65.07
76102;SHT30;64830;46.910;6.354;2023-02-15T00:23:36;2.08;65.20
76102;SHT30;64830;46.910;6.354;2023-02-15T00:26:09;2.08;65.44
76102;SHT30;64830;46.910;6.354;2023-02-15T00:28:35;2.03;65.34
76102;SHT30;64830;46.910;6.354;2023-02-15T00:31:09;2.01;65.43
76102;SHT30;64830;46.910;6.354;2023-02-15T00:33:36;2.02;65.49
76102;SHT30;64830;46.910;6.354;2023-02-15T00:36:03;1.97;65.42
76102;SHT30;64830;46.910;6.354;2023-02-15T00:38:30;1.99;65.65
76102;SHT30;64830;46.910;6.354;2023-02-15T00:40:57;1.98;65.26
76102;SHT30;64830;46.910;6.354;2023-02-15T00:43:23;1.98;65.41
76102;SHT30;64830;46.910;6.354;2023-02-15T00:45:49;1.98;64.98
76102;SHT30;64830;46.910;6.354;2023-02-15T00:48:14;2.01;65.02
76102;SHT30;64830;46.910;6.354;2023-02-15T00:50:40;2.01;65.02
76102;SHT30;64830;46.910;6.354;2023-02-15T00:53:07;1.99;64.85
76102;SHT30;64830;46.910;6.354;2023-02-15T00:55:32;2.02;64.92
76102;SHT30;64830;46.910;6.354;2023-02-15T00:57:58;2.03;65.12
76102;SHT30;64830;46.910;6.354;2023-02-15T01:00:24;2.01;65.01
76102;SHT30;64830;46.910;6.354;2023-02-15T01:02:49;2.01;65.12
76102;SHT30;64830;46.910;6.354;2023-02-15T01:05:14;1.97;65.22
76102;SHT30;64830;46.910;6.354;2023-02-15T01:07:40;1.97;65.50
76102;SHT30;64830;46.910;6.354;2023-02-15T01:10:06;1.94;65.61
76102;SHT30;64830;46.910;6.354;2023-02-15T01:12:32;1.86;65.40
76102;SHT30;64830;46.910;6.354;2023-02-15T01:14:58;1.86;65.51
76102;SHT30;64830;46.910;6.354;2023-02-15T01:17:23;1.86;65.83
76102;SHT30;64830;46.910;6.354;2023-02-15T01:19:48;1.84;65.76
76102;SHT30;64830;46.910;6.354;2023-02-15T01:22:14;1.82;65.68
76102;SHT30;64830;46.910;6.354;2023-02-15T01:24:39;1.81;65.69
76102;SHT30;64830;46.910;6.354;2023-02-15T01:27:05;1.81;65.67
76102;SHT30;64830;46.910;6.354;2023-02-15T01:29:30;1.79;65.93
76102;SHT30;64830;46.910;6.354;2023-02-15T01:31:56;1.78;66.07
76102;SHT30;64830;46.910;6.354;2023-02-15T01:34:21;1.74;66.28
76102;SHT30;64830;46.910;6.354;2023-02-15T01:36:46;1.70;66.08
76102;SHT30;64830;46.910;6.354;2023-02-15T01:39:12;1.68;66.31
76102;SHT30;64830;46.910;6.354;2023-02-15T01:41:37;1.67;66.50
76102;SHT30;64830;46.910;6.354;2023-02-15T01:44:03;1.64;66.31
76102;SHT30;64830;46.910;6.354;2023-02-15T01:46:40;1.64;66.45
76102;SHT30;64830;46.910;6.354;2023-02-15T01:49:26;1.64;66.81
76102;SHT30;64830;46.910;6.354;2023-02-15T01:51:52;1.65;66.34
76102;SHT30;64830;46.910;6.354;2023-02-15T01:54:25;1.61;67.00
76102;SHT30;64830;46.910;6.354;2023-02-15T01:56:52;1.58;66.95
76102;SHT30;64830;46.910;6.354;2023-02-15T01:59:22;1.60;66.84
76102;SHT30;64830;46.910;6.354;2023-02-15T02:01:51;1.58;67.16
76102;SHT30;64830;46.910;6.354;2023-02-15T02:06:47;1.56;66.88
76102;SHT30;64830;46.910;6.354;2023-02-15T02:09:14;1.56;67.00
76102;SHT30;64830;46.910;6.354;2023-02-15T02:11:40;1.56;67.06
76102;SHT30;64830;46.910;6.354;2023-02-15T02:14:06;1.51;67.43
76102;SHT30;64830;46.910;6.354;2023-02-15T02:16:36;1.48;67.72
76102;SHT30;64830;46.910;6.354;2023-02-15T02:19:45;1.44;67.74
76102;SHT30;64830;46.910;6.354;2023-02-15T02:27:54;1.42;67.82
76102;SHT30;64830;46.910;6.354;2023-02-15T02:33:15;1.42;67.78
76102;SHT30;64830;46.910;6.354;2023-02-15T02:38:45;1.42;67.69
76102;SHT30;64830;46.910;6.354;2023-02-15T02:41:42;1.39;67.76
76102;SHT30;64830;46.910;6.354;2023-02-15T02:45:09;1.39;67.75
76102;SHT30;64830;46.910;6.354;2023-02-15T02:47:13;1.39;67.79
76102;SHT30;64830;46.910;6.354;2023-02-15T02:49:42;1.37;67.56
76102;SHT30;64830;46.910;6.354;2023-02-15T02:54:59;1.36;67.66
76102;SHT30;64830;46.910;6.354;2023-02-15T02:57:26;1.36;67.52
76102;SHT30;64830;46.910;6.354;2023-02-15T02:59:53;1.36;67.39
76102;SHT30;64830;46.910;6.354;2023-02-15T03:02:25;1.36;67.56
76102;SHT30;64830;46.910;6.354;2023-02-15T03:05:03;1.33;67.65
76102;SHT30;64830;46.910;6.354;2023-02-15T03:07:32;1.30;67.51
76102;SHT30;64830;46.910;6.354;2023-02-15T03:10:00;1.30;67.54
76102;SHT30;64830;46.910;6.354;2023-02-15T03:12:32;1.28;67.68
76102;SHT30;64830;46.910;6.354;2023-02-15T03:15:22;1.28;67.77
76102;SHT30;64830;46.910;6.354;2023-02-15T03:17:54;1.25;67.62
76102;SHT30;64830;46.910;6.354;2023-02-15T03:20:24;1.26;67.82
76102;SHT30;64830;46.910;6.354;2023-02-15T03:22:53;1.25;68.10
76102;SHT30;64830;46.910;6.354;2023-02-15T03:25:24;1.23;67.99
76102;SHT30;64830;46.910;6.354;2023-02-15T03:28:04;1.18;68.17
76102;SHT30;64830;46.910;6.354;2023-02-15T03:30:32;1.15;68.10
76102;SHT30;64830;46.910;6.354;2023-02-15T03:33:00;1.16;68.30
76102;SHT30;64830;46.910;6.354;2023-02-15T03:35:35;1.11;68.37
76102;SHT30;64830;46.910;6.354;2023-02-15T03:38:07;1.05;68.89
76102;SHT30;64830;46.910;6.354;2023-02-15T03:40:44;1.05;68.80
76102;SHT30;64830;46.910;6.354;2023-02-15T03:44:04;0.99;69.02
76102;SHT30;64830;46.910;6.354;2023-02-15T03:46:34;0.96;69.06
76102;SHT30;64830;46.910;6.354;2023-02-15T03:49:06;0.94;69.04
76102;SHT30;64830;46.910;6.354;2023-02-15T03:51:37;0.89;69.26
76102;SHT30;64830;46.910;6.354;2023-02-15T03:54:07;0.89;69.28
76102;SHT30;64830;46.910;6.354;2023-02-15T03:56:36;0.88;69.48
76102;SHT30;64830;46.910;6.354;2023-02-15T03:59:03;0.87;69.27
76102;SHT30;64830;46.910;6.354;2023-02-15T04:02:12;0.88;68.97
76102;SHT30;64830;46.910;6.354;2023-02-15T04:04:46;0.87;69.14
76102;SHT30;64830;46.910;6.354;2023-02-15T04:07:12;0.91;68.89
76102;SHT30;64830;46.910;6.354;2023-02-15T04:09:37;0.92;68.82
76102;SHT30;64830;46.910;6.354;2023-02-15T04:12:21;0.94;69.02
76102;SHT30;64830;46.910;6.354;2023-02-15T04:14:47;0.94;68.70
76102;SHT30;64830;46.910;6.354;2023-02-15T04:17:31;0.94;69.50
76102;SHT30;64830;46.910;6.354;2023-02-15T04:19:56;0.92;69.25
76102;SHT30;64830;46.910;6.354;2023-02-15T04:22:40;0.87;69.05
76102;SHT30;64830;46.910;6.354;2023-02-15T04:25:24;0.85;69.52
76102;SHT30;64830;46.910;6.354;2023-02-15T04:27:51;0.87;68.81
76102;SHT30;64830;46.910;6.354;2023-02-15T04:30:20;0.85;68.78
76102;SHT30;64830;46.910;6.354;2023-02-15T04:32:46;0.89;68.98
76102;SHT30;64830;46.910;6.354;2023-02-15T04:35:12;0.89;69.14
76102;SHT30;64830;46.910;6.354;2023-02-15T04:37:39;0.88;68.70
76102;SHT30;64830;46.910;6.354;2023-02-15T04:40:10;0.89;69.00
76102;SHT30;64830;46.910;6.354;2023-02-15T04:42:36;0.87;69.03
76102;SHT30;64830;46.910;6.354;2023-02-15T04:45:01;0.83;68.80
76102;SHT30;64830;46.910;6.354;2023-02-15T04:47:27;0.80;69.00
76102;SHT30;64830;46.910;6.354;2023-02-15T04:49:52;0.78;68.86
76102;SHT30;64830;46.910;6.354;2023-02-15T04:52:18;0.74;68.98
76102;SHT30;64830;46.910;6.354;2023-02-15T04:54:44;0.75;68.92
76102;SHT30;64830;46.910;6.354;2023-02-15T04:57:10;0.74;68.89
76102;SHT30;64830;46.910;6.354;2023-02-15T04:59:35;0.74;69.06
76102;SHT30;64830;46.910;6.354;2023-02-15T05:02:00;0.73;69.04
76102;SHT30;64830;46.910;6.354;2023-02-15T05:04:26;0.71;69.12
76102;SHT30;64830;46.910;6.354;2023-02-15T05:06:51;0.68;68.91
76102;SHT30;64830;46.910;6.354;2023-02-15T05:09:17;0.68;68.99
76102;SHT30;64830;46.910;6.354;2023-02-15T05:11:42;0.71;68.76
76102;SHT30;64830;46.910;6.354;2023-02-15T05:14:08;0.66;68.90
76102;SHT30;64830;46.910;6.354;2023-02-15T05:16:34;0.67;68.89
76102;SHT30;64830;46.910;6.354;2023-02-15T05:18:59;0.64;68.79
76102;SHT30;64830;46.910;6.354;2023-02-15T05:21:25;0.67;68.91
76102;SHT30;64830;46.910;6.354;2023-02-15T05:23:50;0.66;69.07
76102;SHT30;64830;46.910;6.354;2023-02-15T05:26:22;0.64;68.81
76102;SHT30;64830;46.910;6.354;2023-02-15T05:29:07;0.66;68.99
76102;SHT30;64830;46.910;6.354;2023-02-15T05:31:33;0.64;68.93
76102;SHT30;64830;46.910;6.354;2023-02-15T05:33:59;0.68;68.91
76102;SHT30;64830;46.910;6.354;2023-02-15T05:36:24;0.64;69.06
76102;SHT30;64830;46.910;6.354;2023-02-15T05:38:50;0.64;69.05
76102;SHT30;64830;46.910;6.354;2023-02-15T05:41:16;0.61;68.91
76102;SHT30;64830;46.910;6.354;2023-02-15T05:43:41;0.60;69.07
76102;SHT30;64830;46.910;6.354;2023-02-15T05:46:07;0.54;69.41
76102;SHT30;64830;46.910;6.354;2023-02-15T05:48:34;0.52;69.12
76102;SHT30;64830;46.910;6.354;2023-02-15T05:53:28;0.50;69.38
76102;SHT30;64830;46.910;6.354;2023-02-15T05:55:53;0.46;69.70
76102;SHT30;64830;46.910;6.354;2023-02-15T05:58:24;0.46;69.67
76102;SHT30;64830;46.910;6.354;2023-02-15T06:00:49;0.43;69.46
76102;SHT30;64830;46.910;6.354;2023-02-15T06:03:15;0.45;69.63
76102;SHT30;64830;46.910;6.354;2023-02-15T06:05:40;0.45;69.64
76102;SHT30;64830;46.910;6.354;2023-02-15T06:08:05;0.42;69.63
76102;SHT30;64830;46.910;6.354;2023-02-15T06:10:31;0.39;69.63
76102;SHT30;64830;46.910;6.354;2023-02-15T06:12:56;0.36;69.71
76102;SHT30;64830;46.910;6.354;2023-02-15T06:15:21;0.38;69.73
76102;SHT30;64830;46.910;6.354;2023-02-15T06:17:47;0.32;70.31
76102;SHT30;64830;46.910;6.354;2023-02-15T06:20:12;0.28;70.14
76102;SHT30;64830;46.910;6.354;2023-02-15T06:22:38;0.28;70.27
76102;SHT30;64830;46.910;6.354;2023-02-15T06:25:03;0.28;70.03
76102;SHT30;64830;46.910;6.354;2023-02-15T06:27:29;0.26;70.12
76102;SHT30;64830;46.910;6.354;2023-02-15T06:29:54;0.28;70.02
76102;SHT30;64830;46.910;6.354;2023-02-15T06:32:20;0.32;69.72
76102;SHT30;64830;46.910;6.354;2023-02-15T06:34:45;0.36;69.67
76102;SHT30;64830;46.910;6.354;2023-02-15T06:37:11;0.38;69.55
76102;SHT30;64830;46.910;6.354;2023-02-15T06:39:36;0.40;69.52
76102;SHT30;64830;46.910;6.354;2023-02-15T06:42:02;0.43;69.50
76102;SHT30;64830;46.910;6.354;2023-02-15T06:44:28;0.46;69.42
76102;SHT30;64830;46.910;6.354;2023-02-15T06:46:53;0.47;69.68
76102;SHT30;64830;46.910;6.354;2023-02-15T06:49:19;0.46;69.56
76102;SHT30;64830;46.910;6.354;2023-02-15T06:51:44;0.50;69.69
76102;SHT30;64830;46.910;6.354;2023-02-15T06:54:10;0.53;69.72
76102;SHT30;64830;46.910;6.354;2023-02-15T06:56:35;0.52;69.79
76102;SHT30;64830;46.910;6.354;2023-02-15T06:59:01;0.53;69.80
76102;SHT30;64830;46.910;6.354;2023-02-15T07:01:26;0.52;69.76
76102;SHT30;64830;46.910;6.354;2023-02-15T07:03:51;0.54;69.58
76102;SHT30;64830;46.910;6.354;2023-02-15T07:06:17;0.57;69.65
76102;SHT30;64830;46.910;6.354;2023-02-15T07:08:42;0.61;69.53
76102;SHT30;64830;46.910;6.354;2023-02-15T07:11:08;0.58;69.65
76102;SHT30;64830;46.910;6.354;2023-02-15T07:13:52;0.58;69.40
76102;SHT30;64830;46.910;6.354;2023-02-15T07:16:18;0.58;69.65
76102;SHT30;64830;46.910;6.354;2023-02-15T07:18:44;0.56;69.72
76102;SHT30;64830;46.910;6.354;2023-02-15T07:21:09;0.61;69.69
76102;SHT30;64830;46.910;6.354;2023-02-15T07:23:36;0.64;69.96
76102;SHT30;64830;46.910;6.354;2023-02-15T07:26:03;0.70;69.72
76102;SHT30;64830;46.910;6.354;2023-02-15T07:28:29;0.74;69.91
76102;SHT30;64830;46.910;6.354;2023-02-15T07:30:54;0.81;69.59
76102;SHT30;64830;46.910;6.354;2023-02-15T07:33:20;0.87;69.36
76102;SHT30;64830;46.910;6.354;2023-02-15T07:35:52;0.89;69.32
76102;SHT30;64830;46.910;6.354;2023-02-15T07:38:19;1.02;69.27
76102;SHT30;64830;46.910;6.354;2023-02-15T07:40:45;1.11;69.09
76102;SHT30;64830;46.910;6.354;2023-02-15T07:43:11;1.19;68.91
76102;SHT30;64830;46.910;6.354;2023-02-15T07:45:36;1.26;68.82
76102;SHT30;64830;46.910;6.354;2023-02-15T07:48:03;1.35;68.64
76102;SHT30;64830;46.910;6.354;2023-02-15T07:50:28;1.47;68.52
76102;SHT30;64830;46.910;6.354;2023-02-15T07:52:54;1.63;68.20
76102;SHT30;64830;46.910;6.354;2023-02-15T07:55:19;1.79;67.97
76102;SHT30;64830;46.910;6.354;2023-02-15T07:57:47;1.97;67.66
76102;SHT30;64830;46.910;6.354;2023-02-15T08:00:14;2.16;67.54
76102;SHT30;64830;46.910;6.354;2023-02-15T08:02:40;2.33;66.98
76102;SHT30;64830;46.910;6.354;2023-02-15T08:05:06;2.50;66.88
76102;SHT30;64830;46.910;6.354;2023-02-15T08:07:32;2.62;65.92
76102;SHT30;64830;46.910;6.354;2023-02-15T08:09:58;2.72;65.54
76102;SHT30;64830;46.910;6.354;2023-02-15T08:12:26;2.82;65.84
76102;SHT30;64830;46.910;6.354;2023-02-15T08:14:51;2.95;65.40
76102;SHT30;64830;46.910;6.354;2023-02-15T08:17:17;3.03;64.97
76102;SHT30;64830;46.910;6.354;2023-02-15T08:19:43;3.15;65.13
76102;SHT30;64830;46.910;6.354;2023-02-15T08:22:12;3.22;64.48
76102;SHT30;64830;46.910;6.354;2023-02-15T08:24:37;3.30;64.70
76102;SHT30;64830;46.910;6.354;2023-02-15T08:27:04;3.41;64.31
76102;SHT30;64830;46.910;6.354;2023-02-15T08:29:31;3.54;64.14
76102;SHT30;64830;46.910;6.354;2023-02-15T08:32:05;3.65;63.54
76102;SHT30;64830;46.910;6.354;2023-02-15T08:34:36;3.75;63.46
76102;SHT30;64830;46.910;6.354;2023-02-15T08:37:02;3.83;63.21
76102;SHT30;64830;46.910;6.354;2023-02-15T08:39:28;3.92;63.12
76102;SHT30;64830;46.910;6.354;2023-02-15T08:41:53;4.06;62.96
76102;SHT30;64830;46.910;6.354;2023-02-15T08:44:19;4.21;63.13
76102;SHT30;64830;46.910;6.354;2023-02-15T08:46:47;4.37;62.43
76102;SHT30;64830;46.910;6.354;2023-02-15T08:49:16;4.53;62.26
76102;SHT30;64830;46.910;6.354;2023-02-15T08:51:42;4.65;62.16
76102;SHT30;64830;46.910;6.354;2023-02-15T08:54:10;4.79;61.92
76102;SHT30;64830;46.910;6.354;2023-02-15T08:56:37;4.89;61.55
76102;SHT30;64830;46.910;6.354;2023-02-15T08:59:04;5.05;59.95
76102;SHT30;64830;46.910;6.354;2023-02-15T09:01:31;5.13;60.96
76102;SHT30;64830;46.910;6.354;2023-02-15T09:03:59;5.26;60.90
76102;SHT30;64830;46.910;6.354;2023-02-15T09:06:25;5.35;60.80
76102;SHT30;64830;46.910;6.354;2023-02-15T09:08:52;5.50;60.73
76102;SHT30;64830;46.910;6.354;2023-02-15T09:11:21;5.68;60.10
76102;SHT30;64830;46.910;6.354;2023-02-15T09:13:53;5.78;59.36
76102;SHT30;64830;46.910;6.354;2023-02-15T09:16:19;5.82;59.14
76102;SHT30;64830;46.910;6.354;2023-02-15T09:18:44;5.90;59.61
76102;SHT30;64830;46.910;6.354;2023-02-15T09:21:15;6.03;59.02
76102;SHT30;64830;46.910;6.354;2023-02-15T09:23:42;6.14;59.64
76102;SHT30;64830;46.910;6.354;2023-02-15T09:26:11;6.28;59.91
76102;SHT30;64830;46.910;6.354;2023-02-15T09:28:37;6.42;59.23
76102;SHT30;64830;46.910;6.354;2023-02-15T09:33:39;6.69;58.89
76102;SHT30;64830;46.910;6.354;2023-02-15T09:36:05;6.86;58.38
76102;SHT30;64830;46.910;6.354;2023-02-15T09:38:30;6.99;58.53
76102;SHT30;64830;46.910;6.354;2023-02-15T09:43:39;7.31;58.44
76102;SHT30;64830;46.910;6.354;2023-02-15T09:49:28;7.65;57.61
76102;SHT30;64830;46.910;6.354;2023-02-15T09:57:24;8.05;57.34
76102;SHT30;64830;46.910;6.354;2023-02-15T10:06:03;8.41;55.88
76102;SHT30;64830;46.910;6.354;2023-02-15T10:09:17;8.55;55.58
76102;SHT30;64830;46.910;6.354;2023-02-15T10:20:00;9.11;55.36
76102;SHT30;64830;46.910;6.354;2023-02-15T10:25:23;9.34;54.68
76102;SHT30;64830;46.910;6.354;2023-02-15T10:28:01;9.48;54.14
76102;SHT30;64830;46.910;6.354;2023-02-15T10:30:50;9.63;54.50
76102;SHT30;64830;46.910;6.354;2023-02-15T10:38:39;10.11;53.65
76102;SHT30;64830;46.910;6.354;2023-02-15T10:47:22;10.62;51.71
76102;SHT30;64830;46.910;6.354;2023-02-15T10:58:04;11.07;50.16
76102;SHT30;64830;46.910;6.354;2023-02-15T11:06:16;11.45;50.39
76102;SHT30;64830;46.910;6.354;2023-02-15T11:08:46;11.56;49.78
76102;SHT30;64830;46.910;6.354;2023-02-15T11:11:26;11.66;48.88
76102;SHT30;64830;46.910;6.354;2023-02-15T11:14:17;11.79;48.08
76102;SHT30;64830;46.910;6.354;2023-02-15T11:16:50;11.84;47.97
76102;SHT30;64830;46.910;6.354;2023-02-15T11:19:34;11.94;47.64
76102;SHT30;64830;46.910;6.354;2023-02-15T11:22:05;12.05;47.07
76102;SHT30;64830;46.910;6.354;2023-02-15T11:24:44;12.14;46.33
76102;SHT30;64830;46.910;6.354;2023-02-15T11:27:19;12.25;46.42
76102;SHT30;64830;46.910;6.354;2023-02-15T11:30:05;12.35;47.31
76102;SHT30;64830;46.910;6.354;2023-02-15T11:32:39;12.45;45.59
76102;SHT30;64830;46.910;6.354;2023-02-15T11:40:34;12.77;44.07
76102;SHT30;64830;46.910;6.354;2023-02-15T11:43:17;12.84;43.75
76102;SHT30;64830;46.910;6.354;2023-02-15T11:45:46;12.93;43.62
76102;SHT30;64830;46.910;6.354;2023-02-15T11:48:13;13.00;40.48
76102;SHT30;64830;46.910;6.354;2023-02-15T11:50:43;13.04;41.50
76102;SHT30;64830;46.910;6.354;2023-02-15T11:53:12;13.10;38.55
76102;SHT30;64830;46.910;6.354;2023-02-15T11:55:39;13.14;41.96
76102;SHT30;64830;46.910;6.354;2023-02-15T11:58:37;13.19;42.11
76102;SHT30;64830;46.910;6.354;2023-02-15T12:01:14;13.25;40.33
76102;SHT30;64830;46.910;6.354;2023-02-15T12:03:53;13.32;41.01
76102;SHT30;64830;46.910;6.354;2023-02-15T12:06:28;13.43;41.24
76102;SHT30;64830;46.910;6.354;2023-02-15T12:11:45;13.58;40.91
76102;SHT30;64830;46.910;6.354;2023-02-15T12:14:12;13.66;40.53
76102;SHT30;64830;46.910;6.354;2023-02-15T12:19:32;13.77;39.16
76102;SHT30;64830;46.910;6.354;2023-02-15T12:22:01;13.84;40.17
76102;SHT30;64830;46.910;6.354;2023-02-15T12:24:34;13.86;40.36
76102;SHT30;64830;46.910;6.354;2023-02-15T12:27:04;13.94;39.78
76102;SHT30;64830;46.910;6.354;2023-02-15T12:29:39;13.98;40.14
76102;SHT30;64830;46.910;6.354;2023-02-15T12:32:16;14.01;39.90
76102;SHT30;64830;46.910;6.354;2023-02-15T12:34:43;14.10;40.08
76102;SHT30;64830;46.910;6.354;2023-02-15T12:37:23;14.12;39.70
76102;SHT30;64830;46.910;6.354;2023-02-15T12:39:57;14.15;40.31
76102;SHT30;64830;46.910;6.354;2023-02-15T12:42:24;14.18;40.08
76102;SHT30;64830;46.910;6.354;2023-02-15T12:47:45;14.22;40.59
76102;SHT30;64830;46.910;6.354;2023-02-15T12:52:46;14.25;38.76
76102;SHT30;64830;46.910;6.354;2023-02-15T12:57:46;14.31;40.56
76102;SHT30;64830;46.910;6.354;2023-02-15T13:02:46;14.39;39.56
76102;SHT30;64830;46.910;6.354;2023-02-15T13:05:25;14.40;38.89
76102;SHT30;64830;46.910;6.354;2023-02-15T13:07:57;14.46;38.08
76102;SHT30;64830;46.910;6.354;2023-02-15T13:10:33;14.43;37.92
76102;SHT30;64830;46.910;6.354;2023-02-15T13:13:00;14.35;39.04
76102;SHT30;64830;46.910;6.354;2023-02-15T13:15:33;14.35;35.47
76102;SHT30;64830;46.910;6.354;2023-02-15T13:18:00;14.32;38.51
76102;SHT30;64830;46.910;6.354;2023-02-15T13:20:27;14.29;36.00
76102;SHT30;64830;46.910;6.354;2023-02-15T13:23:08;14.29;38.30
76102;SHT30;64830;46.910;6.354;2023-02-15T13:25:44;14.31;36.54
76102;SHT30;64830;46.910;6.354;2023-02-15T13:28:16;14.28;38.34
76102;SHT30;64830;46.910;6.354;2023-02-15T13:30:46;14.33;38.51
76102;SHT30;64830;46.910;6.354;2023-02-15T13:33:17;14.35;38.10
76102;SHT30;64830;46.910;6.354;2023-02-15T13:41:57;14.38;38.17
76102;SHT30;64830;46.910;6.354;2023-02-15T13:44:46;14.35;38.23
76102;SHT30;64830;46.910;6.354;2023-02-15T13:47:31;14.39;39.36
76102;SHT30;64830;46.910;6.354;2023-02-15T13:50:21;14.42;38.99
76102;SHT30;64830;46.910;6.354;2023-02-15T13:53:09;14.40;38.92
76102;SHT30;64830;46.910;6.354;2023-02-15T14:01:31;14.52;38.47
76102;SHT30;64830;46.910;6.354;2023-02-15T14:17:59;14.55;39.11
76102;SHT30;64830;46.910;6.354;2023-02-15T14:23:15;14.53;39.48
76102;SHT30;64830;46.910;6.354;2023-02-15T14:25:54;14.57;38.48
76102;SHT30;64830;46.910;6.354;2023-02-15T14:28:29;14.56;40.17
76102;SHT30;64830;46.910;6.354;2023-02-15T14:30:58;14.56;38.95
76102;SHT30;64830;46.910;6.354;2023-02-15T14:33:47;14.56;39.98
76102;SHT30;64830;46.910;6.354;2023-02-15T14:36:16;14.59;40.14
76102;SHT30;64830;46.910;6.354;2023-02-15T14:44:17;14.55;40.53
76102;SHT30;64830;46.910;6.354;2023-02-15T14:47:18;14.55;40.96
76102;SHT30;64830;46.910;6.354;2023-02-15T14:49:38;14.53;40.81
76102;SHT30;64830;46.910;6.354;2023-02-15T14:52:09;14.50;42.22
76102;SHT30;64830;46.910;6.354;2023-02-15T14:59:55;14.45;43.01
76102;SHT30;64830;46.910;6.354;2023-02-15T15:05:35;14.35;43.27
76102;SHT30;64830;46.910;6.354;2023-02-15T15:08:03;14.29;43.63
76102;SHT30;64830;46.910;6.354;2023-02-15T15:10:40;14.25;43.24
76102;SHT30;64830;46.910;6.354;2023-02-15T15:16:28;14.11;43.97
76102;SHT30;64830;46.910;6.354;2023-02-15T15:18:54;14.04;44.18
76102;SHT30;64830;46.910;6.354;2023-02-15T15:21:53;13.97;44.85
76102;SHT30;64830;46.910;6.354;2023-02-15T15:47:00;13.38;46.71
76102;SHT30;64830;46.910;6.354;2023-02-15T15:49:32;13.36;46.87
76102;SHT30;64830;46.910;6.354;2023-02-15T15:52:08;13.36;47.21
76102;SHT30;64830;46.910;6.354;2023-02-15T15:54:38;13.34;47.48
76102;SHT30;64830;46.910;6.354;2023-02-15T15:57:05;13.39;47.51
76102;SHT30;64830;46.910;6.354;2023-02-15T15:59:43;13.62;47.63
76102;SHT30;64830;46.910;6.354;2023-02-15T16:02:13;14.90;46.19
76102;SHT30;64830;46.910;6.354;2023-02-15T16:04:41;15.86;45.61
76102;SHT30;64830;46.910;6.354;2023-02-15T16:07:33;16.88;44.40
76102;SHT30;64830;46.910;6.354;2023-02-15T16:12:26;18.18;42.08
76102;SHT30;64830;46.910;6.354;2023-02-15T16:14:52;18.36;40.94
76102;SHT30;64830;46.910;6.354;2023-02-15T16:17:27;18.14;40.28
76102;SHT30;64830;46.910;6.354;2023-02-15T16:20:27;17.03;41.17
76102;SHT30;64830;46.910;6.354;2023-02-15T16:28:32;14.55;44.86
76102;SHT30;64830;46.910;6.354;2023-02-15T16:31:07;14.07;46.35
76102;SHT30;64830;46.910;6.354;2023-02-15T16:33:37;13.69;46.63
76102;SHT30;64830;46.910;6.354;2023-02-15T16:36:04;13.36;47.81
76102;SHT30;64830;46.910;6.354;2023-02-15T16:41:11;12.73;49.26
76102;SHT30;64830;46.910;6.354;2023-02-15T16:43:40;12.52;49.50
76102;SHT30;64830;46.910;6.354;2023-02-15T16:48:49;12.15;50.41
76102;SHT30;64830;46.910;6.354;2023-02-15T16:51:25;11.97;50.18
76102;SHT30;64830;46.910;6.354;2023-02-15T16:53:52;11.81;50.49
76102;SHT30;64830;46.910;6.354;2023-02-15T16:56:29;11.61;51.47
76102;SHT30;64830;46.910;6.354;2023-02-15T16:58:56;11.45;51.43
76102;SHT30;64830;46.910;6.354;2023-02-15T17:01:26;11.31;51.40
76102;SHT30;64830;46.910;6.354;2023-02-15T17:04:13;11.14;51.78
76102;SHT30;64830;46.910;6.354;2023-02-15T17:06:39;11.01;52.39
76102;SHT30;64830;46.910;6.354;2023-02-15T17:09:06;10.87;52.55
76102;SHT30;64830;46.910;6.354;2023-02-15T17:11:43;10.74;53.06
76102;SHT30;64830;46.910;6.354;2023-02-15T17:16:45;10.34;53.77
76102;SHT30;64830;46.910;6.354;2023-02-15T17:19:23;10.17;54.29
76102;SHT30;64830;46.910;6.354;2023-02-15T17:21:55;9.93;54.98
76102;SHT30;64830;46.910;6.354;2023-02-15T17:26:55;9.52;56.33
76102;SHT30;64830;46.910;6.354;2023-02-15T17:29:33;9.27;56.00
76102;SHT30;64830;46.910;6.354;2023-02-15T17:32:00;9.08;55.68
76102;SHT30;64830;46.910;6.354;2023-02-15T17:34:48;8.90;56.44
76102;SHT30;64830;46.910;6.354;2023-02-15T17:39:56;8.59;56.78
76102;SHT30;64830;46.910;6.354;2023-02-15T17:42:21;8.45;57.46
76102;SHT30;64830;46.910;6.354;2023-02-15T17:44:48;8.34;57.01
76102;SHT30;64830;46.910;6.354;2023-02-15T17:47:17;8.22;58.68
76102;SHT30;64830;46.910;6.354;2023-02-15T17:49:43;8.04;59.07
76102;SHT30;64830;46.910;6.354;2023-02-15T17:52:13;7.89;58.96
76102;SHT30;64830;46.910;6.354;2023-02-15T17:54:39;7.73;59.78
76102;SHT30;64830;46.910;6.354;2023-02-15T17:57:23;7.58;59.32
76102;SHT30;64830;46.910;6.354;2023-02-15T17:59:50;7.45;60.04
76102;SHT30;64830;46.910;6.354;2023-02-15T18:02:34;7.31;60.43
76102;SHT30;64830;46.910;6.354;2023-02-15T18:05:19;7.18;61.09
76102;SHT30;64830;46.910;6.354;2023-02-15T18:08:04;7.06;61.51
76102;SHT30;64830;46.910;6.354;2023-02-15T18:10:48;6.95;62.02
76102;SHT30;64830;46.910;6.354;2023-02-15T18:13:32;6.83;62.38
76102;SHT30;64830;46.910;6.354;2023-02-15T18:15:58;6.79;62.01
76102;SHT30;64830;46.910;6.354;2023-02-15T18:18:24;6.71;62.15
76102;SHT30;64830;46.910;6.354;2023-02-15T18:20:49;6.68;62.19
76102;SHT30;64830;46.910;6.354;2023-02-15T18:23:15;6.62;62.80
76102;SHT30;64830;46.910;6.354;2023-02-15T18:25:40;6.55;62.46
76102;SHT30;64830;46.910;6.354;2023-02-15T18:28:08;6.52;63.26
76102;SHT30;64830;46.910;6.354;2023-02-15T18:30:35;6.44;63.22
76102;SHT30;64830;46.910;6.354;2023-02-15T18:33:01;6.38;63.24
76102;SHT30;64830;46.910;6.354;2023-02-15T18:35:31;6.31;64.15
76102;SHT30;64830;46.910;6.354;2023-02-15T18:37:58;6.25;64.06
76102;SHT30;64830;46.910;6.354;2023-02-15T18:40:26;6.14;64.21
76102;SHT30;64830;46.910;6.354;2023-02-15T18:42:51;6.09;64.35
76102;SHT30;64830;46.910;6.354;2023-02-15T18:45:20;6.03;64.61
76102;SHT30;64830;46.910;6.354;2023-02-15T18:47:47;5.95;64.61
76102;SHT30;64830;46.910;6.354;2023-02-15T18:50:14;5.88;65.09
76102;SHT30;64830;46.910;6.354;2023-02-15T18:52:40;5.80;66.16
76102;SHT30;64830;46.910;6.354;2023-02-15T18:55:16;5.78;65.34
76102;SHT30;64830;46.910;6.354;2023-02-15T18:57:44;5.72;66.44
76102;SHT30;64830;46.910;6.354;2023-02-15T19:00:21;5.68;65.90
76102;SHT30;64830;46.910;6.354;2023-02-15T19:02:49;5.66;66.39
76102;SHT30;64830;46.910;6.354;2023-02-15T19:05:14;5.66;66.29
76102;SHT30;64830;46.910;6.354;2023-02-15T19:07:42;5.63;66.88
76102;SHT30;64830;46.910;6.354;2023-02-15T19:10:15;5.66;66.78